M/T Pazar — TCMC — position and weather

sailwx.info

Track history (hours):
 
Tides and Currents Weather Stations Pressure Air Temp Water Temp Dewpoint Dewpoint Depression Visibility Wind Speed Wind Dir Waves Ship Positions

M/T Pazar

Last reported at 2015-Jul-28 14:22 UTC. Time now 2015-Jul-28 15:19 UTC.
Position N 31°37' E 031°46'.

Length 85 m; draft 3.6 m.

Type: Tanker. MMSI: 271000251.

Date/timePositionNaut miles runAvg speedWind from/ knotsBaromVisibWave heightAir tempDewpointWater temp
2015-Jul-28 14:22N 31°37' E 031°46'  
2015-Jul-24 22:09N 32°48' E 015°15'2710.3
2015-Jul-24 19:33N 32°43' E 014°44'1010.2
2015-Jul-24 18:33N 32°42' E 014°32'15 0.5
2015-Jul-23 14:33N 32°41' E 014°15'0 0.0
2015-Jul-21 12:08N 32°41' E 014°15'34 7.5
2015-Jul-21 07:33N 33°13' E 014°02'1410.9
2015-Jul-21 06:14N 33°27' E 013°57'11210.5
2015-Jul-20 19:33N 35°12' E 013°11'1310.2
2015-Jul-20 18:14N 35°25' E 013°05'710.3
2015-Jul-20 17:33N 35°30' E 012°60'1010.3
2015-Jul-20 16:33N 35°38' E 012°51'2210.4
2015-Jul-20 14:25N 35°55' E 012°34'1010.1
2015-Jul-20 13:26N 36°02' E 012°26'910.2
2015-Jul-20 12:33N 36°09' E 012°19'1010.3
2015-Jul-20 11:33N 36°17' E 012°10'1010.3
2015-Jul-20 10:33N 36°25' E 012°02'1110.5
2015-Jul-20 09:33N 36°33' E 011°54'1410.6
2015-Jul-20 08:12N 36°45' E 011°44'710.4
2015-Jul-20 07:33N 36°51' E 011°39'1211.2
2015-Jul-20 06:31N 37°00' E 011°31'1111.1
2015-Jul-20 05:33N 37°09' E 011°24'1110.8
2015-Jul-20 04:33N 37°19' E 011°17'1010.3
2015-Jul-20 03:32N 37°23' E 011°05'1211.0
2015-Jul-20 02:29N 37°25' E 010°50'1011.1
2015-Jul-20 01:33N 37°28' E 010°38'1211.5
2015-Jul-20 00:28N 37°31' E 010°23'1211.5
2015-Jul-19 23:25N 37°33' E 010°08'1011.3
2015-Jul-19 22:32N 37°32' E 009°55'4410.9
2015-Jul-19 18:31N 37°24' E 009°01'1010.7
2015-Jul-19 17:33N 37°22' E 008°48'22510.6
2015-Jul-18 20:21N 37°05' E 004°07'5110.6
2015-Jul-18 15:30N 37°00' E 003°02'1010.4
2015-Jul-18 14:33N 36°59' E 002°50'  
Track history (hours):
 
Tides and Currents Weather Stations Pressure Air Temp Water Temp Dewpoint Dewpoint Depression Visibility Wind Speed Wind Dir Waves Ship Positions

M/T Pazar

Last reported at 2015-Jul-28 14:22 UTC. Time now 2015-Jul-28 15:19 UTC.
Position N 31°37' E 031°46'.

Length 85 m; draft 3.6 m.

Type: Tanker. MMSI: 271000251.

Date/timePositionNaut miles runAvg speedWind from/ knotsBaromVisibWave heightAir tempDewpointWater temp
2015-Jul-28 14:22N 31°37' E 031°46'  
2015-Jul-24 22:09N 32°48' E 015°15'2710.3
2015-Jul-24 19:33N 32°43' E 014°44'1010.2
2015-Jul-24 18:33N 32°42' E 014°32'15 0.5
2015-Jul-23 14:33N 32°41' E 014°15'0 0.0
2015-Jul-21 12:08N 32°41' E 014°15'34 7.5
2015-Jul-21 07:33N 33°13' E 014°02'1410.9
2015-Jul-21 06:14N 33°27' E 013°57'11210.5
2015-Jul-20 19:33N 35°12' E 013°11'1310.2
2015-Jul-20 18:14N 35°25' E 013°05'710.3
2015-Jul-20 17:33N 35°30' E 012°60'1010.3
2015-Jul-20 16:33N 35°38' E 012°51'2210.4
2015-Jul-20 14:25N 35°55' E 012°34'1010.1
2015-Jul-20 13:26N 36°02' E 012°26'910.2
2015-Jul-20 12:33N 36°09' E 012°19'1010.3
2015-Jul-20 11:33N 36°17' E 012°10'1010.3
2015-Jul-20 10:33N 36°25' E 012°02'1110.5
2015-Jul-20 09:33N 36°33' E 011°54'1410.6
2015-Jul-20 08:12N 36°45' E 011°44'710.4
2015-Jul-20 07:33N 36°51' E 011°39'1211.2
2015-Jul-20 06:31N 37°00' E 011°31'1111.1
2015-Jul-20 05:33N 37°09' E 011°24'1110.8
2015-Jul-20 04:33N 37°19' E 011°17'1010.3
2015-Jul-20 03:32N 37°23' E 011°05'1211.0
2015-Jul-20 02:29N 37°25' E 010°50'1011.1
2015-Jul-20 01:33N 37°28' E 010°38'1211.5
2015-Jul-20 00:28N 37°31' E 010°23'1211.5
2015-Jul-19 23:25N 37°33' E 010°08'1011.3
2015-Jul-19 22:32N 37°32' E 009°55'4410.9
2015-Jul-19 18:31N 37°24' E 009°01'1010.7
2015-Jul-19 17:33N 37°22' E 008°48'22510.6
2015-Jul-18 20:21N 37°05' E 004°07'5110.6
2015-Jul-18 15:30N 37°00' E 003°02'1010.4
2015-Jul-18 14:33N 36°59' E 002°50'  

Dump ship's entire track history